Time;durP1;ratioP1;P1;durP2;ratioP2;P2;SDS_P1;SDS_P2;PMS_P1;PMS_P2;Temp;Humidity;BMP_temperature;BMP_pressure;BME280_temperature;BME280_humidity;BME280_pressure;Samples;Min_cycle;Max_cycle;Signal;HPM_P1;HPM_P2
2021/08/06 00:02:25;;;;;;;1.33;1.17;;;;;;;;;;5053214;28;20037;-54
2021/08/06 00:04:51;;;;;;;1.38;1.20;;;;;;;;;;5053444;28;20017;-53
2021/08/06 00:07:17;;;;;;;2.17;1.27;;;;;;;;;;5054172;28;20036;-54
2021/08/06 00:09:43;;;;;;;4.38;1.58;;;;;;;;;;5053709;28;20028;-53
2021/08/06 00:12:09;;;;;;;1.00;0.90;;;;;;;;;;5052551;28;20025;-53
2021/08/06 00:14:36;;;;;;;1.40;1.10;;;;;;;;;;5053503;28;20024;-54
2021/08/06 00:17:02;;;;;;;1.48;1.13;;;;;;;;;;5053043;28;20457;-54
2021/08/06 00:19:28;;;;;;;1.40;1.20;;;;;;;;;;5053602;28;20017;-54
2021/08/06 00:21:54;;;;;;;1.67;0.90;;;;;;;;;;5052273;28;20698;-53
2021/08/06 00:24:20;;;;;;;4.68;1.55;;;;;;;;;;5053676;28;20036;-53
2021/08/06 00:26:46;;;;;;;10.80;2.00;;;;;;;;;;5052993;28;20017;-53
2021/08/06 00:29:12;;;;;;;1.92;1.63;;;;;;;;;;5053355;28;20017;-53
2021/08/06 00:31:38;;;;;;;2.75;2.30;;;;;;;;;;5052509;28;20052;-53
2021/08/06 00:34:04;;;;;;;6.05;1.50;;;;;;;;;;5053085;28;20032;-53
2021/08/06 00:36:31;;;;;;;2.35;1.55;;;;;;;;;;5053126;28;20025;-54
2021/08/06 00:38:57;;;;;;;2.45;1.45;;;;;;;;;;5053291;28;20127;-54
2021/08/06 00:41:23;;;;;;;1.92;1.50;;;;;;;;;;5052141;28;20032;-53
2021/08/06 00:43:48;;;;;;;2.33;1.30;;;;;;;;;;5052751;28;20037;-53
2021/08/06 00:46:16;;;;;;;1.30;1.20;;;;;;;;;;5053073;28;20453;-53
2021/08/06 00:48:43;;;;;;;5.70;1.77;;;;;;;;;;5053110;28;20116;-53
2021/08/06 00:51:09;;;;;;;3.85;1.33;;;;;;;;;;5051933;28;20021;-53
2021/08/06 00:53:37;;;;;;;2.15;1.73;;;;;;;;;;5053052;28;20074;-53
2021/08/06 00:56:03;;;;;;;3.47;1.48;;;;;;;;;;5052772;28;20058;-53
2021/08/06 00:58:29;;;;;;;2.40;1.30;;;;;;;;;;5052800;28;20052;-53
2021/08/06 01:00:55;;;;;;;2.90;1.50;;;;;;;;;;5052122;28;20435;-53
2021/08/06 01:03:23;;;;;;;2.67;1.77;;;;;;;;;;5052826;28;20029;-53
2021/08/06 01:05:52;;;;;;;7.50;1.95;;;;;;;;;;5052774;28;20143;-53
2021/08/06 01:08:21;;;;;;;3.83;1.73;;;;;;;;;;5053055;28;20029;-53
2021/08/06 01:10:49;;;;;;;2.20;1.40;;;;;;;;;;5051442;28;20427;-53
2021/08/06 01:13:17;;;;;;;1.85;1.55;;;;;;;;;;5052526;28;20021;-53
2021/08/06 01:15:48;;;;;;;5.35;1.30;;;;;;;;;;5052481;28;20087;-53
2021/08/06 01:18:16;;;;;;;6.30;2.00;;;;;;;;;;5052857;28;20116;-53
2021/08/06 01:20:46;;;;;;;12.68;1.80;;;;;;;;;;5051682;28;20031;-53
2021/08/06 01:23:21;;;;;;;3.95;1.83;;;;;;;;;;5052011;28;20040;-53
2021/08/06 01:25:54;;;;;;;5.55;1.40;;;;;;;;;;5052441;28;20017;-53
2021/08/06 01:28:40;;;;;;;1.50;1.17;;;;;;;;;;5052877;28;20017;-53
2021/08/06 01:31:06;;;;;;;11.00;1.58;;;;;;;;;;5051696;28;20033;-53
2021/08/06 01:33:33;;;;;;;1.42;1.17;;;;;;;;;;5052674;28;20108;-53
2021/08/06 01:35:59;;;;;;;1.85;1.35;;;;;;;;;;5051896;28;20370;-53
2021/08/06 01:38:25;;;;;;;5.15;1.10;;;;;;;;;;5052062;28;20482;-53
2021/08/06 01:40:57;;;;;;;3.00;1.70;;;;;;;;;;5051841;28;20115;-53
2021/08/06 01:43:27;;;;;;;2.35;1.17;;;;;;;;;;5069991;28;20043;-53
2021/08/06 01:46:05;;;;;;;6.03;1.58;;;;;;;;;;5072557;28;20426;-53
2021/08/06 01:48:35;;;;;;;6.05;1.45;;;;;;;;;;5072352;28;20032;-53
2021/08/06 01:51:02;;;;;;;4.45;1.58;;;;;;;;;;5071763;28;20021;-53
2021/08/06 01:53:28;;;;;;;16.42;1.92;;;;;;;;;;5071847;28;20025;-53
2021/08/06 01:55:57;;;;;;;3.00;1.58;;;;;;;;;;5071528;28;20354;-53
2021/08/06 01:58:24;;;;;;;5.80;1.70;;;;;;;;;;5071865;28;20082;-53
2021/08/06 02:00:51;;;;;;;3.97;1.27;;;;;;;;;;5070888;28;20024;-53
2021/08/06 02:03:18;;;;;;;1.88;1.50;;;;;;;;;;5072144;28;20082;-53
2021/08/06 02:05:44;;;;;;;2.55;1.35;;;;;;;;;;5072176;28;20025;-54
2021/08/06 02:08:10;;;;;;;1.38;1.27;;;;;;;;;;5072424;28;20023;-53
2021/08/06 02:10:38;;;;;;;3.22;1.67;;;;;;;;;;5071493;28;20025;-53
2021/08/06 02:13:04;;;;;;;5.55;1.73;;;;;;;;;;5072342;28;20028;-53
2021/08/06 02:15:31;;;;;;;3.70;1.48;;;;;;;;;;5072286;28;20012;-53
2021/08/06 02:17:57;;;;;;;2.20;1.40;;;;;;;;;;5070747;28;20025;-53
2021/08/06 02:20:24;;;;;;;3.00;1.48;;;;;;;;;;5075857;28;20422;-53
2021/08/06 02:22:51;;;;;;;3.65;1.55;;;;;;;;;;5074651;28;20131;-54
2021/08/06 02:25:18;;;;;;;2.35;1.55;;;;;;;;;;5075653;28;20020;-53
2021/08/06 02:27:45;;;;;;;1.20;1.10;;;;;;;;;;5075712;28;20025;-54
2021/08/06 02:30:12;;;;;;;5.32;1.83;;;;;;;;;;5075667;28;20031;-53
2021/08/06 02:32:38;;;;;;;4.07;1.52;;;;;;;;;;5074570;28;20056;-53
2021/08/06 02:35:04;;;;;;;2.10;1.30;;;;;;;;;;5068146;28;20028;-53
2021/08/06 02:37:36;;;;;;;1.27;1.10;;;;;;;;;;5055578;28;20021;-53
2021/08/06 02:40:02;;;;;;;2.15;1.27;;;;;;;;;;5055266;28;20056;-53
2021/08/06 02:42:28;;;;;;;1.20;1.10;;;;;;;;;;5054123;28;20029;-54
2021/08/06 02:44:54;;;;;;;11.50;1.80;;;;;;;;;;5055463;28;20024;-53
2021/08/06 02:47:20;;;;;;;3.08;1.80;;;;;;;;;;5055470;28;20017;-53
2021/08/06 02:49:46;;;;;;;6.47;1.70;;;;;;;;;;5055097;28;20074;-53
2021/08/06 02:52:12;;;;;;;1.60;1.33;;;;;;;;;;5054402;28;20032;-53
2021/08/06 02:54:38;;;;;;;1.55;1.10;;;;;;;;;;5055085;28;20439;-53
2021/08/06 02:57:04;;;;;;;1.83;1.13;;;;;;;;;;5054764;28;20029;-53
2021/08/06 02:59:30;;;;;;;5.35;1.10;;;;;;;;;;5063747;28;20453;-53
2021/08/06 03:01:56;;;;;;;3.47;1.45;;;;;;;;;;5073504;28;20025;-53
2021/08/06 03:04:22;;;;;;;3.17;1.20;;;;;;;;;;5069314;28;20028;-53
2021/08/06 03:06:48;;;;;;;8.30;1.05;;;;;;;;;;5067077;28;20500;-53
2021/08/06 03:09:14;;;;;;;2.35;1.00;;;;;;;;;;5075075;28;20024;-53
2021/08/06 03:11:40;;;;;;;1.05;0.90;;;;;;;;;;5073827;28;20350;-54
2021/08/06 03:14:06;;;;;;;1.63;0.90;;;;;;;;;;5074445;28;20078;-53
2021/08/06 03:16:32;;;;;;;3.72;1.20;;;;;;;;;;5074624;28;20148;-53
2021/08/06 03:18:58;;;;;;;2.38;0.88;;;;;;;;;;5074664;28;20068;-53
2021/08/06 03:21:24;;;;;;;1.13;0.70;;;;;;;;;;5073933;28;20044;-54
2021/08/06 03:23:50;;;;;;;3.88;0.90;;;;;;;;;;5074306;28;20458;-54
2021/08/06 03:26:16;;;;;;;1.88;0.85;;;;;;;;;;5074545;28;20028;-53
2021/08/06 03:28:42;;;;;;;2.55;0.90;;;;;;;;;;5073944;28;20093;-53
2021/08/06 03:31:08;;;;;;;0.90;0.90;;;;;;;;;;5072685;28;20036;-53
2021/08/06 03:33:34;;;;;;;4.15;0.88;;;;;;;;;;5074473;28;20091;-53
2021/08/06 03:36:00;;;;;;;0.77;0.73;;;;;;;;;;5059477;28;20448;-53
2021/08/06 03:38:26;;;;;;;3.70;1.13;;;;;;;;;;5054370;28;20462;-53
2021/08/06 03:40:53;;;;;;;5.07;1.27;;;;;;;;;;5053410;28;20021;-54
2021/08/06 03:43:19;;;;;;;5.78;0.98;;;;;;;;;;5054280;28;20065;-53
2021/08/06 03:45:46;;;;;;;8.45;1.00;;;;;;;;;;5053884;28;20450;-53
2021/08/06 03:48:12;;;;;;;1.48;1.00;;;;;;;;;;5054125;28;20033;-53
2021/08/06 03:50:38;;;;;;;13.68;1.65;;;;;;;;;;5053481;28;20028;-53
2021/08/06 03:53:04;;;;;;;2.28;1.02;;;;;;;;;;5054116;28;20024;-53
2021/08/06 03:55:30;;;;;;;3.08;1.42;;;;;;;;;;5053824;28;20074;-53
2021/08/06 03:57:57;;;;;;;1.10;0.98;;;;;;;;;;5053552;28;20029;-53
2021/08/06 04:00:25;;;;;;;1.25;0.90;;;;;;;;;;5054126;28;20029;-53
2021/08/06 04:02:51;;;;;;;1.20;1.10;;;;;;;;;;5052899;28;20435;-53
2021/08/06 04:05:17;;;;;;;1.85;0.88;;;;;;;;;;5053836;28;20029;-53
2021/08/06 04:07:43;;;;;;;0.90;0.90;;;;;;;;;;5053770;28;20028;-54
2021/08/06 04:10:10;;;;;;;1.58;1.02;;;;;;;;;;5053842;28;20083;-53
2021/08/06 04:12:36;;;;;;;1.60;0.88;;;;;;;;;;5052768;28;20017;-53
2021/08/06 04:15:03;;;;;;;7.43;1.20;;;;;;;;;;5053453;28;20029;-53
2021/08/06 04:17:29;;;;;;;1.33;1.17;;;;;;;;;;5053569;28;20024;-53
2021/08/06 04:19:55;;;;;;;1.17;0.90;;;;;;;;;;5053538;28;20443;-53
2021/08/06 04:22:21;;;;;;;2.22;1.17;;;;;;;;;;5052899;28;20072;-53
2021/08/06 04:24:47;;;;;;;1.17;1.08;;;;;;;;;;5053523;28;20434;-54
2021/08/06 04:27:13;;;;;;;2.53;1.00;;;;;;;;;;5053007;28;20052;-53
2021/08/06 04:29:39;;;;;;;1.25;1.13;;;;;;;;;;5053371;28;20044;-54
2021/08/06 04:32:05;;;;;;;1.00;0.90;;;;;;;;;;5052728;28;20443;-53
2021/08/06 04:34:31;;;;;;;1.65;0.95;;;;;;;;;;5053080;28;20025;-53
2021/08/06 04:36:57;;;;;;;5.82;0.98;;;;;;;;;;5053188;28;20021;-53
2021/08/06 04:39:23;;;;;;;1.30;1.00;;;;;;;;;;5053240;28;20033;-53
2021/08/06 04:41:49;;;;;;;3.10;1.13;;;;;;;;;;5051561;28;20299;-53
2021/08/06 04:44:18;;;;;;;1.80;1.08;;;;;;;;;;5053043;28;20071;-53
2021/08/06 04:46:45;;;;;;;1.20;0.90;;;;;;;;;;5052820;28;20052;-53
2021/08/06 04:49:11;;;;;;;5.28;1.23;;;;;;;;;;5065739;28;20024;-53
2021/08/06 04:51:37;;;;;;;1.55;1.30;;;;;;;;;;5091913;28;20107;-53
2021/08/06 04:54:03;;;;;;;2.17;1.50;;;;;;;;;;5093072;28;20507;-54
2021/08/06 04:56:29;;;;;;;4.30;1.90;;;;;;;;;;5092809;28;20055;-53
2021/08/06 04:58:55;;;;;;;4.55;1.40;;;;;;;;;;5092791;28;20358;-54
2021/08/06 05:01:21;;;;;;;1.98;1.50;;;;;;;;;;5092673;28;20024;-53
2021/08/06 05:03:47;;;;;;;1.33;1.00;;;;;;;;;;5093070;28;20479;-53
2021/08/06 05:06:14;;;;;;;1.52;1.20;;;;;;;;;;5093315;28;20076;-53
2021/08/06 05:08:43;;;;;;;2.25;0.93;;;;;;;;;;5092919;28;20442;-53
2021/08/06 05:11:09;;;;;;;1.25;1.05;;;;;;;;;;5092178;28;20055;-53
2021/08/06 05:13:35;;;;;;;1.05;0.90;;;;;;;;;;5092753;28;20102;-53
2021/08/06 05:16:01;;;;;;;1.05;0.93;;;;;;;;;;5092649;28;20434;-53
2021/08/06 05:18:27;;;;;;;1.55;1.15;;;;;;;;;;5087840;28;20032;-54
2021/08/06 05:20:53;;;;;;;2.45;0.98;;;;;;;;;;5071779;28;20403;-53
2021/08/06 05:23:19;;;;;;;1.73;1.02;;;;;;;;;;5071977;28;20098;-51
2021/08/06 05:25:45;;;;;;;1.10;1.00;;;;;;;;;;5072235;28;20444;-52
2021/08/06 05:28:11;;;;;;;2.63;1.05;;;;;;;;;;5072573;28;20106;-51
2021/08/06 05:30:37;;;;;;;1.08;0.98;;;;;;;;;;5071398;28;20016;-52
2021/08/06 05:33:03;;;;;;;4.68;1.58;;;;;;;;;;5072923;28;20071;-51
2021/08/06 05:35:30;;;;;;;1.52;1.20;;;;;;;;;;5061660;28;20429;-51
2021/08/06 05:37:56;;;;;;;3.28;1.60;;;;;;;;;;5052226;28;20443;-51
2021/08/06 05:40:22;;;;;;;1.58;1.02;;;;;;;;;;5052425;28;20025;-51
2021/08/06 05:42:48;;;;;;;4.85;1.23;;;;;;;;;;5051776;28;20048;-51
2021/08/06 05:45:14;;;;;;;2.05;0.98;;;;;;;;;;5052353;28;20113;-51
2021/08/06 05:47:43;;;;;;;1.67;1.25;;;;;;;;;;5052969;28;20115;-51
2021/08/06 05:50:09;;;;;;;3.95;1.10;;;;;;;;;;5052295;28;20021;-51
2021/08/06 05:52:35;;;;;;;3.33;1.17;;;;;;;;;;5051341;28;20071;-51
2021/08/06 05:55:01;;;;;;;1.23;1.00;;;;;;;;;;5056032;28;20419;-52
2021/08/06 05:57:27;;;;;;;4.50;1.02;;;;;;;;;;5055810;28;20063;-51
2021/08/06 05:59:53;;;;;;;1.00;0.90;;;;;;;;;;5056525;28;20066;-52
2021/08/06 06:02:19;;;;;;;1.25;0.88;;;;;;;;;;5055507;28;20434;-51
2021/08/06 06:04:45;;;;;;;3.05;1.23;;;;;;;;;;5055695;28;20115;-52
2021/08/06 06:07:11;;;;;;;2.35;1.10;;;;;;;;;;5055942;28;20028;-51
2021/08/06 06:09:37;;;;;;;0.90;0.88;;;;;;;;;;5056404;28;20499;-51
2021/08/06 06:12:03;;;;;;;1.38;1.00;;;;;;;;;;5055111;28;20143;-51
2021/08/06 06:14:29;;;;;;;2.72;1.15;;;;;;;;;;5055763;28;20056;-51
2021/08/06 06:16:55;;;;;;;2.58;0.95;;;;;;;;;;5055572;28;20072;-52
2021/08/06 06:19:21;;;;;;;4.05;1.10;;;;;;;;;;5054993;28;20029;-52
2021/08/06 06:21:47;;;;;;;1.63;1.10;;;;;;;;;;5054418;28;20451;-51
2021/08/06 06:24:13;;;;;;;5.03;1.20;;;;;;;;;;5055553;28;20033;-51
2021/08/06 06:26:39;;;;;;;2.58;1.33;;;;;;;;;;5055742;28;20029;-51
2021/08/06 06:29:05;;;;;;;3.38;1.58;;;;;;;;;;5055393;28;20063;-52
2021/08/06 06:31:31;;;;;;;1.80;1.00;;;;;;;;;;5055284;28;20029;-51
2021/08/06 06:33:57;;;;;;;2.35;1.17;;;;;;;;;;5055673;28;20053;-51
2021/08/06 06:36:23;;;;;;;1.20;0.95;;;;;;;;;;5054829;28;20025;-51
2021/08/06 06:38:49;;;;;;;2.92;1.30;;;;;;;;;;5055830;28;20055;-51
2021/08/06 06:41:15;;;;;;;1.50;1.33;;;;;;;;;;5054608;28;20037;-51
2021/08/06 06:43:41;;;;;;;2.80;1.40;;;;;;;;;;5054854;28;20072;-51
2021/08/06 06:46:07;;;;;;;1.17;0.90;;;;;;;;;;5055228;28;20039;-51
2021/08/06 06:48:33;;;;;;;5.50;1.42;;;;;;;;;;5055477;28;20087;-52
2021/08/06 06:50:59;;;;;;;4.72;1.48;;;;;;;;;;5054002;28;20025;-51
2021/08/06 06:53:25;;;;;;;0.95;0.90;;;;;;;;;;5055604;28;20037;-51
2021/08/06 06:55:51;;;;;;;5.47;1.60;;;;;;;;;;5055251;28;20045;-51
2021/08/06 06:58:18;;;;;;;6.50;1.70;;;;;;;;;;5054992;28;20021;-52
2021/08/06 07:00:44;;;;;;;3.28;1.25;;;;;;;;;;5054262;28;20052;-52
2021/08/06 07:03:10;;;;;;;2.50;1.33;;;;;;;;;;5055070;28;20036;-52
2021/08/06 07:05:36;;;;;;;2.17;1.20;;;;;;;;;;5054499;28;20037;-51
2021/08/06 07:08:03;;;;;;;3.08;1.58;;;;;;;;;;5054873;28;20025;-51
2021/08/06 07:10:29;;;;;;;2.63;1.50;;;;;;;;;;5054624;28;20032;-51
2021/08/06 07:12:56;;;;;;;2.58;1.50;;;;;;;;;;5054240;28;20031;-51
2021/08/06 07:15:23;;;;;;;2.05;1.45;;;;;;;;;;5054235;28;20040;-52
2021/08/06 07:17:49;;;;;;;2.40;1.88;;;;;;;;;;5055015;28;20028;-51
2021/08/06 07:20:16;;;;;;;6.65;1.25;;;;;;;;;;5054933;28;20035;-51
2021/08/06 07:22:43;;;;;;;1.85;1.13;;;;;;;;;;5053571;28;20037;-51
2021/08/06 07:25:10;;;;;;;2.25;1.52;;;;;;;;;;5054682;28;20033;-51
2021/08/06 07:27:36;;;;;;;1.45;1.35;;;;;;;;;;5054678;28;20029;-52
2021/08/06 07:30:03;;;;;;;1.75;1.40;;;;;;;;;;5053897;28;20053;-51
2021/08/06 07:32:29;;;;;;;1.88;1.25;;;;;;;;;;5053593;28;20039;-51
2021/08/06 07:34:55;;;;;;;5.72;1.90;;;;;;;;;;5054286;28;20064;-52
2021/08/06 07:37:21;;;;;;;2.50;1.60;;;;;;;;;;5054328;28;20060;-51
2021/08/06 07:39:49;;;;;;;2.20;1.92;;;;;;;;;;5054372;28;20021;-51
2021/08/06 07:42:15;;;;;;;1.77;1.50;;;;;;;;;;5053225;28;20036;-52
2021/08/06 07:44:41;;;;;;;1.88;1.67;;;;;;;;;;5053871;28;20107;-52
2021/08/06 07:47:07;;;;;;;2.80;1.70;;;;;;;;;;5053685;28;20377;-51
2021/08/06 07:49:34;;;;;;;1.77;1.60;;;;;;;;;;5054313;28;20036;-51
2021/08/06 07:52:00;;;;;;;2.03;1.60;;;;;;;;;;5052907;28;20018;-51
2021/08/06 07:54:26;;;;;;;4.05;2.33;;;;;;;;;;5054327;28;20120;-52
2021/08/06 07:56:52;;;;;;;2.67;2.22;;;;;;;;;;5053211;28;20025;-51
2021/08/06 07:59:19;;;;;;;13.20;1.75;;;;;;;;;;5053878;28;20385;-51
2021/08/06 08:01:46;;;;;;;1.90;1.52;;;;;;;;;;5052644;28;20064;-52
2021/08/06 08:04:12;;;;;;;13.05;2.00;;;;;;;;;;5054099;28;20056;-52
2021/08/06 08:06:38;;;;;;;1.85;1.15;;;;;;;;;;5053973;28;20025;-51
2021/08/06 08:09:04;;;;;;;1.52;1.40;;;;;;;;;;5053631;28;20360;-51
2021/08/06 08:11:30;;;;;;;2.28;1.58;;;;;;;;;;5053319;28;20381;-51
2021/08/06 08:13:56;;;;;;;5.90;1.52;;;;;;;;;;5053397;28;20518;-52
2021/08/06 08:16:23;;;;;;;1.55;1.45;;;;;;;;;;5052821;28;20120;-51
2021/08/06 08:18:50;;;;;;;1.40;1.30;;;;;;;;;;5052177;28;20162;-51
2021/08/06 08:21:16;;;;;;;1.63;1.42;;;;;;;;;;5052761;28;20036;-53
2021/08/06 08:23:42;;;;;;;4.25;1.30;;;;;;;;;;5053327;28;20351;-51
2021/08/06 08:26:08;;;;;;;1.75;1.35;;;;;;;;;;5053778;28;20053;-51
2021/08/06 08:28:33;;;;;;;1.83;1.40;;;;;;;;;;5053331;28;20033;-52
2021/08/06 08:30:59;;;;;;;1.63;1.35;;;;;;;;;;5052048;28;20036;-51
2021/08/06 08:33:26;;;;;;;2.17;1.67;;;;;;;;;;5053165;28;20135;-51
2021/08/06 08:35:52;;;;;;;6.07;1.65;;;;;;;;;;5053150;28;20374;-52
2021/08/06 08:38:18;;;;;;;1.38;1.27;;;;;;;;;;5053210;28;20050;-51
2021/08/06 08:40:44;;;;;;;1.80;1.25;;;;;;;;;;5052513;28;20028;-52
2021/08/06 08:43:10;;;;;;;3.63;1.23;;;;;;;;;;5053028;28;20043;-51
2021/08/06 08:45:40;;;;;;;3.38;1.30;;;;;;;;;;5052903;28;20024;-51
2021/08/06 08:48:10;;;;;;;0.82;0.80;;;;;;;;;;5053206;28;20024;-51
2021/08/06 08:50:37;;;;;;;2.13;1.00;;;;;;;;;;5052594;28;20091;-51
2021/08/06 08:53:04;;;;;;;1.42;1.33;;;;;;;;;;5052833;28;20156;-52
2021/08/06 08:55:30;;;;;;;1.10;1.00;;;;;;;;;;5053002;28;20443;-52
2021/08/06 08:57:56;;;;;;;1.08;0.98;;;;;;;;;;5052840;28;20029;-52
2021/08/06 09:00:22;;;;;;;1.60;1.05;;;;;;;;;;5053178;28;20052;-52
2021/08/06 09:02:48;;;;;;;2.15;0.80;;;;;;;;;;5051604;28;20068;-51
2021/08/06 09:05:15;;;;;;;1.38;1.05;;;;;;;;;;5052804;28;20482;-52
2021/08/06 09:07:42;;;;;;;1.40;1.15;;;;;;;;;;5053276;28;20031;-51
2021/08/06 09:10:13;;;;;;;5.00;1.20;;;;;;;;;;5052710;28;20414;-51
2021/08/06 09:12:59;;;;;;;0.95;0.93;;;;;;;;;;5051967;28;20040;-51
2021/08/06 09:15:40;;;;;;;1.63;1.10;;;;;;;;;;5052587;28;20538;-51
2021/08/06 09:18:28;;;;;;;1.50;1.40;;;;;;;;;;5052475;28;20442;-52
2021/08/06 09:21:08;;;;;;;1.13;1.02;;;;;;;;;;5051991;28;20025;-52
2021/08/06 09:23:53;;;;;;;1.35;1.10;;;;;;;;;;5052181;28;20035;-52
2021/08/06 09:26:28;;;;;;;1.48;1.10;;;;;;;;;;5052728;28;20108;-52
2021/08/06 09:29:00;;;;;;;1.23;1.08;;;;;;;;;;5056175;28;20063;-52
2021/08/06 09:31:26;;;;;;;4.43;1.15;;;;;;;;;;5055226;28;20447;-52
2021/08/06 09:34:09;;;;;;;1.80;0.98;;;;;;;;;;5056150;28;20040;-52
2021/08/06 09:36:35;;;;;;;0.90;0.90;;;;;;;;;;5056904;28;20032;-51
2021/08/06 09:39:14;;;;;;;0.90;0.90;;;;;;;;;;5056375;28;20251;-52
2021/08/06 09:41:44;;;;;;;2.25;1.15;;;;;;;;;;5056072;28;20025;-52
2021/08/06 09:44:10;;;;;;;;;;;;;;;;;;5056044;28;20455;-52
2021/08/06 09:46:36;;;;;;;0.90;0.90;;;;;;;;;;5056557;28;19912;-51
2021/08/06 09:49:07;;;;;;;1.20;1.08;;;;;;;;;;5056239;28;20491;-51
2021/08/06 09:51:33;;;;;;;;;;;;;;;;;;5055991;28;20411;-52
2021/08/06 09:53:59;;;;;;;1.20;1.00;;;;;;;;;;5055888;28;19946;-52
2021/08/06 09:56:25;;;;;;;1.38;1.05;;;;;;;;;;5055927;28;20021;-51
2021/08/06 09:59:08;;;;;;;1.92;1.35;;;;;;;;;;5056408;28;20028;-51
2021/08/06 10:01:35;;;;;;;1.17;0.95;;;;;;;;;;5055386;28;20021;-51
2021/08/06 10:04:14;;;;;;;2.17;0.88;;;;;;;;;;5055883;28;20037;-51
2021/08/06 10:06:56;;;;;;;1.00;0.80;;;;;;;;;;5056012;28;20024;-51
2021/08/06 10:09:22;;;;;;;1.63;1.00;;;;;;;;;;5056336;28;20036;-52
2021/08/06 10:11:48;;;;;;;1.48;0.73;;;;;;;;;;5055013;28;20355;-52
2021/08/06 10:14:14;;;;;;;1.42;0.80;;;;;;;;;;5055838;28;20405;-51
2021/08/06 10:16:40;;;;;;;0.88;0.88;;;;;;;;;;5055865;28;20359;-52
2021/08/06 10:19:06;;;;;;;0.75;0.75;;;;;;;;;;5055640;28;20028;-51
2021/08/06 10:21:32;;;;;;;1.08;0.98;;;;;;;;;;5054707;28;20031;-51
2021/08/06 10:23:58;;;;;;;1.52;0.73;;;;;;;;;;5055555;28;20454;-52
2021/08/06 10:26:24;;;;;;;5.03;1.10;;;;;;;;;;5056040;28;20083;-51
2021/08/06 10:28:50;;;;;;;4.10;0.90;;;;;;;;;;5055734;28;20021;-52
2021/08/06 10:31:23;;;;;;;1.15;0.73;;;;;;;;;;5054794;28;20021;-52
2021/08/06 10:34:01;;;;;;;0.80;0.80;;;;;;;;;;5055205;28;20027;-51
2021/08/06 10:36:48;;;;;;;0.95;0.90;;;;;;;;;;5055845;28;20057;-52
2021/08/06 10:39:27;;;;;;;0.88;0.70;;;;;;;;;;5054503;28;20446;-52
2021/08/06 10:41:53;;;;;;;3.42;1.25;;;;;;;;;;5055021;28;20040;-51
2021/08/06 10:44:19;;;;;;;0.68;0.68;;;;;;;;;;5055477;28;20123;-52
2021/08/06 10:46:52;;;;;;;1.38;0.70;;;;;;;;;;5055181;28;20033;-52
2021/08/06 10:49:18;;;;;;;2.83;1.25;;;;;;;;;;5055444;28;20032;-52
2021/08/06 10:51:44;;;;;;;2.42;1.35;;;;;;;;;;5054121;28;20345;-52
2021/08/06 10:54:10;;;;;;;1.13;0.80;;;;;;;;;;5055388;28;20047;-52
2021/08/06 10:56:37;;;;;;;5.70;1.98;;;;;;;;;;5055000;28;20029;-52
2021/08/06 10:59:05;;;;;;;4.07;1.60;;;;;;;;;;5055211;28;20032;-51
2021/08/06 11:01:34;;;;;;;1.98;1.10;;;;;;;;;;5053976;28;20466;-52
2021/08/06 11:04:01;;;;;;;2.22;1.00;;;;;;;;;;5054902;28;20095;-52
2021/08/06 11:06:37;;;;;;;1.00;0.90;;;;;;;;;;5054907;28;20385;-51
2021/08/06 11:09:04;;;;;;;5.00;1.30;;;;;;;;;;5054812;28;20025;-52
2021/08/06 11:11:43;;;;;;;3.88;1.02;;;;;;;;;;5053841;28;20017;-52
2021/08/06 11:14:10;;;;;;;2.25;0.70;;;;;;;;;;5054726;28;20029;-52
2021/08/06 11:16:36;;;;;;;1.90;0.80;;;;;;;;;;5054896;28;20422;-51
2021/08/06 11:19:02;;;;;;;2.20;0.90;;;;;;;;;;5054478;28;20457;-52
2021/08/06 11:21:40;;;;;;;2.80;1.00;;;;;;;;;;5053740;28;20032;-52
2021/08/06 11:24:06;;;;;;;0.90;0.90;;;;;;;;;;5054345;28;20033;-52
2021/08/06 11:26:32;;;;;;;4.05;1.25;;;;;;;;;;5054890;28;20099;-52
2021/08/06 11:29:10;;;;;;;1.83;0.90;;;;;;;;;;5054629;28;20021;-51
2021/08/06 11:31:36;;;;;;;1.23;0.90;;;;;;;;;;5053673;28;20025;-51
2021/08/06 11:34:06;;;;;;;1.10;0.88;;;;;;;;;;5054203;28;20059;-52
2021/08/06 11:36:34;;;;;;;1.00;0.90;;;;;;;;;;5053923;28;20120;-51
2021/08/06 11:39:09;;;;;;;3.20;0.90;;;;;;;;;;5054523;28;20025;-52
2021/08/06 11:41:45;;;;;;;1.15;1.00;;;;;;;;;;5053710;28;20113;-51
2021/08/06 11:44:11;;;;;;;0.82;0.82;;;;;;;;;;5053890;28;20116;-52
2021/08/06 11:46:44;;;;;;;0.75;0.75;;;;;;;;;;5054124;28;20140;-52
2021/08/06 11:49:10;;;;;;;1.42;0.95;;;;;;;;;;5054053;28;20025;-52
2021/08/06 11:51:45;;;;;;;1.65;0.90;;;;;;;;;;5052281;28;20052;-52
2021/08/06 11:54:11;;;;;;;1.48;0.98;;;;;;;;;;5053967;28;20028;-52
2021/08/06 11:56:37;;;;;;;2.10;0.90;;;;;;;;;;5053995;28;20585;-52
2021/08/06 11:59:09;;;;;;;1.38;0.70;;;;;;;;;;5053740;28;20108;-52
2021/08/06 12:01:35;;;;;;;0.88;0.88;;;;;;;;;;5052999;28;20025;-52
2021/08/06 12:04:02;;;;;;;4.80;1.35;;;;;;;;;;5053532;28;20143;-52
2021/08/06 12:06:28;;;;;;;1.83;0.73;;;;;;;;;;5053448;28;20049;-52
2021/08/06 12:08:56;;;;;;;0.90;0.80;;;;;;;;;;5054121;28;20024;-52
2021/08/06 12:11:23;;;;;;;1.75;0.90;;;;;;;;;;5052769;28;20027;-52
2021/08/06 12:14:02;;;;;;;0.60;0.50;;;;;;;;;;5053841;28;20028;-52
2021/08/06 12:16:32;;;;;;;2.00;0.90;;;;;;;;;;5053844;28;20033;-52
2021/08/06 12:19:00;;;;;;;4.10;0.90;;;;;;;;;;5053633;28;20112;-52
2021/08/06 12:21:29;;;;;;;0.50;0.50;;;;;;;;;;5052344;28;20029;-52
2021/08/06 12:23:57;;;;;;;1.20;0.80;;;;;;;;;;5053495;28;20090;-52
2021/08/06 12:26:23;;;;;;;3.38;1.08;;;;;;;;;;5053512;28;20023;-52
2021/08/06 12:28:51;;;;;;;0.77;0.77;;;;;;;;;;5053637;28;20108;-51
2021/08/06 12:31:16;;;;;;;1.88;1.30;;;;;;;;;;5052515;28;20385;-52
2021/08/06 12:33:44;;;;;;;2.35;1.10;;;;;;;;;;5053296;28;20021;-52
2021/08/06 12:36:15;;;;;;;1.23;0.95;;;;;;;;;;5053254;28;20025;-52
2021/08/06 12:38:42;;;;;;;3.67;1.73;;;;;;;;;;5053108;28;20025;-52
2021/08/06 12:41:08;;;;;;;1.67;0.98;;;;;;;;;;5052321;28;20017;-52
2021/08/06 12:43:34;;;;;;;1.58;0.88;;;;;;;;;;5053458;28;20029;-52
2021/08/06 12:46:19;;;;;;;3.30;0.75;;;;;;;;;;5052659;28;20029;-52
2021/08/06 12:49:04;;;;;;;4.85;1.20;;;;;;;;;;5052970;28;20229;-52
2021/08/06 12:51:31;;;;;;;0.95;0.60;;;;;;;;;;5051581;28;20467;-52
2021/08/06 12:53:57;;;;;;;0.82;0.60;;;;;;;;;;5053182;28;20124;-52
2021/08/06 12:56:23;;;;;;;1.35;0.90;;;;;;;;;;5052582;28;20032;-52
2021/08/06 12:59:08;;;;;;;1.85;1.13;;;;;;;;;;5053077;28;20021;-52
2021/08/06 13:01:37;;;;;;;2.85;1.15;;;;;;;;;;5051539;28;20295;-53
2021/08/06 13:04:03;;;;;;;2.60;1.00;;;;;;;;;;5052112;28;20170;-52
2021/08/06 13:06:44;;;;;;;2.22;1.15;;;;;;;;;;5052511;28;20115;-52
2021/08/06 13:09:10;;;;;;;3.50;1.08;;;;;;;;;;5053169;28;20110;-52
2021/08/06 13:11:36;;;;;;;1.70;1.08;;;;;;;;;;5051907;28;20076;-52
2021/08/06 13:14:06;;;;;;;5.00;1.38;;;;;;;;;;5053127;28;20032;-52
2021/08/06 13:16:32;;;;;;;1.30;0.88;;;;;;;;;;5052283;28;20450;-52
2021/08/06 13:18:58;;;;;;;1.25;0.90;;;;;;;;;;5052712;28;20135;-52
2021/08/06 13:21:24;;;;;;;0.70;0.70;;;;;;;;;;5052049;28;20362;-52
2021/08/06 13:23:51;;;;;;;1.20;0.88;;;;;;;;;;5052501;28;20077;-52
2021/08/06 13:26:17;;;;;;;1.25;0.85;;;;;;;;;;5052733;28;20021;-52
2021/08/06 13:28:43;;;;;;;1.70;1.25;;;;;;;;;;5052272;28;20033;-53
2021/08/06 13:31:09;;;;;;;1.80;0.90;;;;;;;;;;5051399;28;20017;-52
2021/08/06 13:33:35;;;;;;;1.58;1.00;;;;;;;;;;5052690;28;20028;-52
2021/08/06 13:36:02;;;;;;;0.70;0.70;;;;;;;;;;5052455;28;20021;-52
2021/08/06 13:38:28;;;;;;;3.35;0.95;;;;;;;;;;5052401;28;20071;-52
2021/08/06 13:40:54;;;;;;;2.63;0.80;;;;;;;;;;5051421;28;20047;-52
2021/08/06 13:43:20;;;;;;;1.83;1.10;;;;;;;;;;5052461;28;20409;-52
2021/08/06 13:45:46;;;;;;;1.75;0.85;;;;;;;;;;5052006;28;20438;-52
2021/08/06 13:48:14;;;;;;;2.45;1.02;;;;;;;;;;5052689;28;20059;-52
2021/08/06 13:50:40;;;;;;;1.00;1.00;;;;;;;;;;5051066;28;20063;-52
2021/08/06 13:53:07;;;;;;;2.17;1.10;;;;;;;;;;5052221;28;20025;-52
2021/08/06 13:55:33;;;;;;;3.17;0.75;;;;;;;;;;5063031;28;20388;-52
2021/08/06 13:57:59;;;;;;;3.60;1.02;;;;;;;;;;5072046;28;20413;-52
2021/08/06 14:00:25;;;;;;;0.80;0.80;;;;;;;;;;5072140;28;20113;-52
2021/08/06 14:02:51;;;;;;;2.55;0.98;;;;;;;;;;5071206;28;20060;-52
2021/08/06 14:05:17;;;;;;;1.83;1.08;;;;;;;;;;5072353;28;20052;-53
2021/08/06 14:07:43;;;;;;;2.95;0.85;;;;;;;;;;5072337;28;20434;-52
2021/08/06 14:10:09;;;;;;;1.60;1.08;;;;;;;;;;5059190;28;20029;-52
2021/08/06 14:12:35;;;;;;;2.95;0.77;;;;;;;;;;5057674;28;20442;-52
2021/08/06 14:15:01;;;;;;;1.15;0.90;;;;;;;;;;5073656;28;20108;-52
2021/08/06 14:17:27;;;;;;;1.38;0.98;;;;;;;;;;5068050;28;20029;-52
2021/08/06 14:19:53;;;;;;;2.05;1.00;;;;;;;;;;5053745;28;20068;-52
2021/08/06 14:22:22;;;;;;;3.35;1.13;;;;;;;;;;5054690;28;20033;-52
2021/08/06 14:24:47;;;;;;;2.67;0.98;;;;;;;;;;5055549;28;20075;-52
2021/08/06 14:27:14;;;;;;;1.95;0.88;;;;;;;;;;5054937;28;20250;-52
2021/08/06 14:29:40;;;;;;;1.17;0.75;;;;;;;;;;5055770;28;20064;-52
2021/08/06 14:32:06;;;;;;;2.47;1.10;;;;;;;;;;5054912;28;20024;-52
2021/08/06 14:34:32;;;;;;;1.13;0.85;;;;;;;;;;5055300;28;20021;-52
2021/08/06 14:36:58;;;;;;;1.42;1.25;;;;;;;;;;5055525;28;20023;-52
2021/08/06 14:39:24;;;;;;;0.88;0.88;;;;;;;;;;5055045;28;20102;-52
2021/08/06 14:41:50;;;;;;;1.98;1.05;;;;;;;;;;5054071;28;20021;-52
2021/08/06 14:44:16;;;;;;;1.60;1.00;;;;;;;;;;5055066;28;20052;-52
2021/08/06 14:46:42;;;;;;;1.35;0.98;;;;;;;;;;5054613;28;20036;-52